Time;durP1;ratioP1;P1;durP2;ratioP2;P2;SDS_P1;SDS_P2;PMS_P1;PMS_P2;Temp;Humidity;BMP_temperature;BMP_pressure;BME280_temperature;BME280_humidity;BME280_pressure;Samples;Min_cycle;Max_cycle;Signal;HPM_P1;HPM_P2
2023/01/02 00:00:24;;;;;;;5.63;3.30;;;10.30;1.00;;;;;;5051867;28;20785;-73
2023/01/02 00:02:49;;;;;;;3.27;2.97;;;10.30;1.00;;;;;;5053732;28;20246;-73
2023/01/02 00:05:15;;;;;;;4.97;3.40;;;10.40;1.00;;;;;;5052140;28;20767;-73
2023/01/02 00:07:41;;;;;;;7.17;3.50;;;10.40;1.00;;;;;;5056650;28;20170;-73
2023/01/02 00:10:07;;;;;;;5.43;3.50;;;10.40;1.00;;;;;;5036238;28;20203;-73
2023/01/02 00:12:32;;;;;;;7.50;3.53;;;10.40;1.00;;;;;;5036938;28;20202;-73
2023/01/02 00:14:58;;;;;;;5.13;3.57;;;10.30;1.00;;;;;;5035505;28;20888;-73
2023/01/02 00:17:24;;;;;;;5.00;3.63;;;10.30;1.00;;;;;;5035493;28;20175;-73
2023/01/02 00:19:50;;;;;;;6.30;3.23;;;10.30;1.00;;;;;;5036554;28;20532;-73
2023/01/02 00:22:16;;;;;;;8.63;3.40;;;10.30;1.00;;;;;;5047918;28;20209;-73
2023/01/02 00:24:41;;;;;;;6.83;2.97;;;10.30;1.00;;;;;;5055280;28;20449;-73
2023/01/02 00:27:07;;;;;;;4.03;3.67;;;10.30;1.00;;;;;;5053896;28;20742;-73
2023/01/02 00:29:33;;;;;;;4.50;3.10;;;10.30;1.00;;;;;;5056039;28;20171;-73
2023/01/02 00:31:58;;;;;;;4.63;3.60;;;10.30;1.00;;;;;;5047228;28;20175;-73
2023/01/02 00:34:25;;;;;;;9.23;3.87;;;10.30;1.00;;;;;;5035194;28;20191;-74
2023/01/02 00:36:50;;;;;;;7.93;3.63;;;10.30;1.00;;;;;;5042870;28;20214;-73
2023/01/02 00:39:17;;;;;;;8.30;4.40;;;10.30;1.00;;;;;;5054648;28;20880;-73
2023/01/02 00:41:42;;;;;;;4.43;3.20;;;10.30;1.00;;;;;;5050297;28;20265;-73
2023/01/02 00:44:08;;;;;;;5.60;3.63;;;10.30;1.00;;;;;;5035697;28;20798;-73
2023/01/02 00:46:34;;;;;;;6.03;3.93;;;10.30;1.00;;;;;;5038263;28;20187;-73
2023/01/02 00:48:59;;;;;;;7.67;3.73;;;10.30;1.00;;;;;;5055857;28;20255;-73
2023/01/02 00:51:25;;;;;;;8.73;3.97;;;10.30;1.00;;;;;;5053476;28;20207;-73
2023/01/02 00:53:51;;;;;;;4.63;3.83;;;10.30;1.00;;;;;;5034881;28;20175;-73
2023/01/02 00:56:16;;;;;;;6.40;4.30;;;10.30;1.00;;;;;;5034901;28;20171;-73
2023/01/02 00:58:42;;;;;;;4.10;3.70;;;10.30;1.00;;;;;;5055809;28;20171;-73
2023/01/02 01:01:08;;;;;;;11.47;4.73;;;10.30;1.00;;;;;;5055637;28;20191;-73
2023/01/02 01:03:33;;;;;;;9.87;4.10;;;10.30;1.00;;;;;;5036260;28;20187;-73
2023/01/02 01:06:06;;;;;;;9.73;4.13;;;10.30;1.00;;;;;;5034840;28;20199;-73
2023/01/02 01:08:33;;;;;;;7.70;5.03;;;10.30;1.00;;;;;;5053178;28;20179;-73
2023/01/02 01:11:07;;;;;;;6.03;4.30;;;10.30;1.00;;;;;;5055146;28;20465;-73
2023/01/02 01:13:33;;;;;;;9.33;5.17;;;10.30;1.00;;;;;;5052410;28;20395;-72
2023/01/02 01:16:18;;;;;;;8.07;4.80;;;10.20;1.00;;;;;;5054513;28;20465;-73
2023/01/02 01:18:44;;;;;;;5.87;4.20;;;10.30;1.00;;;;;;5034440;28;20184;-72
2023/01/02 01:21:16;;;;;;;7.93;3.93;;;10.30;1.00;;;;;;5034819;28;20434;-73
2023/01/02 01:23:42;;;;;;;5.13;4.57;;;10.30;1.00;;;;;;5055172;28;20388;-72
2023/01/02 01:26:10;;;;;;;11.93;4.30;;;10.30;1.00;;;;;;5052623;28;20418;-73
2023/01/02 01:28:36;;;;;;;10.43;4.10;;;10.30;1.00;;;;;;5042961;28;20833;-73
2023/01/02 01:31:09;;;;;;;4.73;4.30;;;10.30;1.00;;;;;;5055049;28;20511;-72
2023/01/02 01:33:36;;;;;;;5.53;4.33;;;10.30;1.00;;;;;;5054189;28;20369;-73
2023/01/02 01:36:04;;;;;;;5.30;4.30;;;10.30;1.00;;;;;;5054134;28;20445;-72
2023/01/02 01:38:31;;;;;;;12.67;5.80;;;10.30;1.00;;;;;;5053777;28;20388;-73
2023/01/02 01:40:57;;;;;;;8.03;4.80;;;10.30;1.00;;;;;;5033725;28;20408;-73
2023/01/02 01:43:39;;;;;;;7.70;4.10;;;10.20;1.00;;;;;;5035002;28;20393;-72
2023/01/02 01:46:20;;;;;;;7.73;4.70;;;10.30;1.00;;;;;;5033975;28;20409;-72
2023/01/02 01:48:52;;;;;;;6.87;4.40;;;10.30;1.00;;;;;;5035056;28;20397;-73
2023/01/02 01:51:19;;;;;;;8.90;5.70;;;10.30;1.00;;;;;;5054727;28;20835;-73
2023/01/02 01:53:48;;;;;;;7.33;4.30;;;10.30;1.00;;;;;;5053474;28;20379;-73
2023/01/02 01:56:14;;;;;;;6.73;4.23;;;10.30;1.00;;;;;;5033612;28;20405;-72
2023/01/02 01:58:43;;;;;;;7.33;5.03;;;10.30;1.00;;;;;;5034452;28;20866;-72
2023/01/02 02:01:13;;;;;;;7.13;4.70;;;10.30;1.00;;;;;;5033469;28;20410;-72
2023/01/02 02:03:41;;;;;;;5.57;4.93;;;10.40;1.00;;;;;;5034579;28;20930;-72
2023/01/02 02:06:07;;;;;;;15.57;5.57;;;10.30;1.00;;;;;;5052593;28;20412;-72
2023/01/02 02:08:40;;;;;;;5.33;3.70;;;10.30;1.00;;;;;;5053236;28;20380;-73
2023/01/02 02:11:06;;;;;;;7.80;5.00;;;10.40;1.00;;;;;;5052894;28;20956;-73
2023/01/02 02:13:33;;;;;;;11.73;4.57;;;10.40;1.00;;;;;;5053493;28;20415;-73
2023/01/02 02:16:01;;;;;;;5.07;4.20;;;10.30;1.00;;;;;;5052821;28;20434;-73
2023/01/02 02:18:43;;;;;;;4.80;4.03;;;10.30;1.00;;;;;;5054266;28;20383;-73
2023/01/02 02:21:33;;;;;;;6.83;4.37;;;10.30;1.00;;;;;;5034293;28;20387;-73
2023/01/02 02:24:32;;;;;;;5.10;4.23;;;10.40;1.00;;;;;;5039145;28;20416;-73
2023/01/02 02:27:15;;;;;;;10.30;4.20;;;10.30;1.00;;;;;;5054046;28;20812;-73
2023/01/02 02:30:02;;;;;;;6.40;4.30;;;10.30;1.00;;;;;;5053041;28;20436;-73
2023/01/02 02:32:56;;;;;;;8.17;4.80;;;10.30;1.90;;;;;;5053394;28;20380;-73
2023/01/02 02:35:39;;;;;;;7.57;3.90;;;10.30;1.00;;;;;;5035691;28;20434;-74
2023/01/02 02:38:17;;;;;;;12.00;4.80;;;10.30;5.50;;;;;;5033822;28;20439;-73
2023/01/02 02:41:15;;;;;;;4.30;3.90;;;10.20;1.70;;;;;;5033038;28;20439;-73
2023/01/02 02:44:00;;;;;;;6.83;4.33;;;10.20;2.60;;;;;;5033523;28;20395;-73
2023/01/02 02:46:31;;;;;;;4.03;3.53;;;10.20;12.20;;;;;;5033980;28;20445;-74
2023/01/02 02:48:57;;;;;;;7.53;4.20;;;10.20;21.00;;;;;;5039919;28;20396;-74
2023/01/02 02:51:28;;;;;;;4.40;4.00;;;10.20;20.80;;;;;;5052333;28;20489;-73
2023/01/02 02:54:07;;;;;;;4.97;3.50;;;10.20;24.30;;;;;;5045294;28;20587;-73
2023/01/02 02:56:34;;;;;;;6.93;4.20;;;10.20;29.20;;;;;;5032947;28;20389;-74
2023/01/02 02:59:00;;;;;;;6.20;4.37;;;10.20;31.10;;;;;;5040070;28;20476;-73
2023/01/02 03:01:30;;;;;;;4.13;3.30;;;10.20;38.90;;;;;;5053503;28;20776;-74
2023/01/02 03:03:55;;;;;;;5.30;3.80;;;10.20;51.90;;;;;;5047573;28;20428;-75
2023/01/02 03:06:28;;;;;;;4.23;3.67;;;10.20;55.40;;;;;;5032544;28;20404;-73
2023/01/02 03:09:19;;;;;;;5.00;3.80;;;10.20;61.90;;;;;;5036471;28;20183;-74
2023/01/02 03:11:59;;;;;;;3.87;3.40;;;10.20;65.60;;;;;;5032909;28;20917;-73
2023/01/02 03:15:15;;;;;;;4.00;3.53;;;10.20;69.80;;;;;;5031336;28;20420;-75
2023/01/02 03:17:53;;;;;;;3.93;3.63;;;10.20;80.40;;;;;;5032869;28;20425;-75
2023/01/02 03:20:23;;;;;;;5.10;4.13;;;10.20;80.40;;;;;;5039762;28;20404;-73
2023/01/02 03:22:54;;;;;;;3.60;3.30;;;10.20;80.70;;;;;;5033331;28;20488;-74
2023/01/02 03:25:21;;;;;;;3.70;3.20;;;10.20;83.30;;;;;;5032357;28;20403;-75
2023/01/02 03:27:49;;;;;;;4.37;3.97;;;10.10;87.80;;;;;;5045835;28;20487;-76
2023/01/02 03:30:20;;;;;;;3.87;3.57;;;10.10;91.40;;;;;;5052917;28;20924;-73
2023/01/02 03:33:12;;;;;;;4.30;4.00;;;10.10;94.60;;;;;;5039623;28;20430;-73
2023/01/02 03:35:47;;;;;;;3.83;2.93;;;10.10;99.90;;;;;;5032006;28;20869;-75
2023/01/02 03:38:22;;;;;;;3.40;3.10;;;10.00;99.90;;;;;;5033111;28;20396;-73
2023/01/02 03:40:55;;;;;;;4.37;3.03;;;10.10;99.90;;;;;;5032889;28;20918;-75
2023/01/02 03:43:27;;;;;;;3.27;3.07;;;10.10;99.90;;;;;;5032353;28;20389;-74
2023/01/02 03:46:23;;;;;;;4.93;3.83;;;10.10;99.90;;;;;;5030747;28;20443;-73
2023/01/02 03:48:55;;;;;;;5.20;3.50;;;10.10;99.90;;;;;;5052385;28;20856;-76
2023/01/02 03:51:21;;;;;;;6.23;3.80;;;10.10;99.90;;;;;;5048459;28;20435;-76
2023/01/02 03:53:49;;;;;;;3.97;3.20;;;10.10;99.90;;;;;;5031902;28;20419;-75
2023/01/02 03:56:35;;;;;;;5.57;3.90;;;10.10;99.90;;;;;;5033095;28;20200;-73
2023/01/02 03:59:07;;;;;;;4.57;4.17;;;10.20;99.90;;;;;;5051721;28;20403;-73
2023/01/02 04:01:51;;;;;;;4.87;4.47;;;10.20;99.90;;;;;;5049508;28;20513;-75
2023/01/02 04:04:42;;;;;;;6.23;4.87;;;10.20;99.90;;;;;;5032313;28;20404;-74
2023/01/02 04:07:13;;;;;;;5.73;4.50;;;10.20;99.90;;;;;;5039339;28;20391;-76
2023/01/02 04:09:41;;;;;;;5.13;4.30;;;10.20;99.90;;;;;;5052522;28;20406;-73
2023/01/02 04:12:11;;;;;;;4.63;4.23;;;10.30;99.90;;;;;;5044628;28;20410;-75
2023/01/02 04:14:47;;;;;;;8.13;5.77;;;10.30;99.90;;;;;;5031775;28;20404;-73
2023/01/02 04:17:16;;;;;;;5.07;4.60;;;10.30;99.90;;;;;;5039225;28;20414;-72
2023/01/02 04:20:31;;;;;;;5.23;4.77;;;10.30;99.90;;;;;;5052590;28;20406;-72
2023/01/02 04:23:22;;;;;;;6.73;6.23;;;10.30;99.90;;;;;;5039878;28;20422;-72
2023/01/02 04:26:00;;;;;;;6.20;5.60;;;10.30;99.90;;;;;;5031558;28;20915;-74
2023/01/02 04:28:30;;;;;;;9.33;6.67;;;10.40;99.90;;;;;;5047126;28;20392;-73
2023/01/02 04:31:08;;;;;;;6.90;6.20;;;10.30;99.90;;;;;;5050978;28;20465;-76
2023/01/02 04:33:43;;;;;;;7.37;5.90;;;10.30;99.90;;;;;;5035853;28;20900;-72
2023/01/02 04:36:14;;;;;;;6.13;5.63;;;10.30;99.90;;;;;;5031551;28;20440;-72
2023/01/02 04:38:44;;;;;;;11.80;7.27;;;10.40;99.90;;;;;;5051948;28;20420;-72
2023/01/02 04:41:13;;;;;;;8.50;6.97;;;10.30;99.90;;;;;;5052373;28;20384;-75
2023/01/02 04:43:39;;;;;;;11.47;7.03;;;10.30;99.90;;;;;;5031172;28;20396;-75
2023/01/02 04:46:05;;;;;;;8.63;6.57;;;10.40;99.90;;;;;;5032223;28;20500;-75
2023/01/02 04:48:30;;;;;;;19.27;7.10;;;10.40;99.90;;;;;;5036716;28;20184;-75
2023/01/02 04:50:56;;;;;;;8.80;7.10;;;10.40;99.90;;;;;;5035890;28;20207;-72
2023/01/02 04:53:22;;;;;;;11.20;6.80;;;10.40;99.90;;;;;;5036070;28;20254;-74
2023/01/02 04:55:48;;;;;;;7.90;7.17;;;10.40;99.90;;;;;;5034909;28;20206;-75
2023/01/02 04:58:13;;;;;;;11.67;7.40;;;10.40;99.90;;;;;;5053030;28;20171;-72
2023/01/02 05:00:39;;;;;;;8.17;7.33;;;10.50;99.90;;;;;;5055796;28;20261;-75
2023/01/02 05:03:05;;;;;;;8.53;7.60;;;10.50;99.90;;;;;;5039249;28;20487;-72
2023/01/02 05:05:31;;;;;;;10.80;8.97;;;10.50;99.90;;;;;;5034681;28;20199;-74
2023/01/02 05:07:58;;;;;;;11.63;6.97;;;10.60;99.90;;;;;;5049263;28;20177;-74
2023/01/02 05:10:24;;;;;;;8.60;7.20;;;10.60;99.90;;;;;;5054170;28;20491;-71
2023/01/02 05:12:49;;;;;;;14.00;8.03;;;10.60;99.90;;;;;;5043171;28;20480;-72
2023/01/02 05:15:15;;;;;;;15.00;7.47;;;10.60;99.90;;;;;;5034521;28;20425;-73
2023/01/02 05:17:41;;;;;;;10.50;7.50;;;10.70;1.00;;;;;;5044423;28;20186;-75
2023/01/02 05:20:10;;;;;;;9.43;6.97;;;10.70;1.00;;;;;;5055364;28;20186;-72
2023/01/02 05:25:23;;;;;;;8.50;7.10;;;10.70;1.00;;;;;;5049638;28;20415;-72
2023/01/02 05:27:52;;;;;;;10.30;7.50;;;10.80;1.00;;;;;;5054036;28;20425;-74
2023/01/02 05:30:17;;;;;;;10.33;6.50;;;10.80;1.00;;;;;;5054308;28;20518;-74
2023/01/02 05:32:43;;;;;;;8.50;7.60;;;10.80;1.00;;;;;;5055114;28;20500;-74
2023/01/02 05:35:09;;;;;;;13.60;7.77;;;10.80;1.00;;;;;;5046503;28;20183;-74
2023/01/02 05:37:34;;;;;;;7.93;6.60;;;10.80;1.00;;;;;;5034818;28;20175;-72
2023/01/02 05:40:00;;;;;;;9.30;7.27;;;10.90;1.00;;;;;;5039957;28;20240;-72
2023/01/02 05:42:26;;;;;;;8.10;6.57;;;10.80;1.00;;;;;;5054969;28;20178;-71
2023/01/02 05:44:51;;;;;;;11.40;6.77;;;10.90;1.00;;;;;;5049524;28;20212;-74
2023/01/02 05:47:17;;;;;;;8.33;7.10;;;10.90;1.00;;;;;;5053661;28;20181;-72
2023/01/02 05:49:43;;;;;;;8.20;6.60;;;10.90;1.00;;;;;;5053825;28;20228;-74
2023/01/02 05:52:08;;;;;;;12.67;7.77;;;10.90;1.00;;;;;;5054852;28;20197;-73
2023/01/02 05:54:34;;;;;;;13.10;7.50;;;10.90;1.00;;;;;;5049912;28;20552;-73
2023/01/02 05:57:00;;;;;;;13.63;7.27;;;11.00;1.00;;;;;;5034351;28;20838;-73
2023/01/02 05:59:25;;;;;;;18.53;8.10;;;11.00;1.00;;;;;;5035668;28;20187;-73
2023/01/02 06:01:51;;;;;;;12.33;7.20;;;11.00;1.00;;;;;;5034690;28;20254;-74
2023/01/02 06:04:17;;;;;;;11.43;7.70;;;11.10;1.00;;;;;;5034163;28;20568;-75
2023/01/02 06:06:43;;;;;;;11.97;7.50;;;11.10;1.00;;;;;;5036137;28;20620;-73
2023/01/02 06:09:12;;;;;;;11.43;7.40;;;11.10;1.00;;;;;;5054483;28;20174;-71
2023/01/02 06:11:37;;;;;;;9.33;7.83;;;11.10;1.00;;;;;;5052139;28;20241;-74
2023/01/02 06:14:03;;;;;;;15.10;9.53;;;11.20;1.00;;;;;;5034241;28;20895;-76
2023/01/02 06:16:29;;;;;;;14.50;8.77;;;11.10;1.00;;;;;;5033298;28;20615;-73
2023/01/02 06:18:55;;;;;;;10.23;8.50;;;11.20;1.00;;;;;;5052630;28;20190;-76
2023/01/02 06:21:21;;;;;;;12.33;7.90;;;11.20;1.00;;;;;;5054258;28;20749;-75
2023/01/02 06:23:52;;;;;;;15.23;8.53;;;11.20;1.00;;;;;;5036639;28;20178;-76
2023/01/02 06:26:19;;;;;;;13.47;7.50;;;11.20;1.00;;;;;;5033254;28;20410;-76
2023/01/02 06:28:47;;;;;;;20.93;8.07;;;11.20;1.00;;;;;;5049927;28;20399;-74
2023/01/02 06:31:15;;;;;;;8.50;7.27;;;11.20;1.00;;;;;;5052820;28;20435;-72
2023/01/02 06:33:41;;;;;;;11.73;7.70;;;11.30;1.00;;;;;;5038677;28;20491;-73
2023/01/02 06:36:15;;;;;;;19.67;8.67;;;11.30;1.00;;;;;;5044598;28;20475;-74
2023/01/02 06:38:42;;;;;;;18.87;9.63;;;11.30;1.00;;;;;;5053908;28;20372;-72
2023/01/02 06:41:08;;;;;;;13.10;8.60;;;11.20;1.00;;;;;;5041672;28;20433;-73
2023/01/02 06:43:35;;;;;;;13.53;8.67;;;11.30;1.00;;;;;;5033878;28;20384;-75
2023/01/02 06:46:03;;;;;;;15.60;9.30;;;11.20;1.00;;;;;;5036116;28;20813;-72
2023/01/02 06:48:33;;;;;;;14.30;9.33;;;11.30;1.00;;;;;;5033899;28;20384;-72
2023/01/02 06:50:59;;;;;;;10.70;8.10;;;11.30;1.00;;;;;;5033820;28;20433;-75
2023/01/02 06:53:26;;;;;;;9.03;7.50;;;11.30;1.00;;;;;;5033120;28;20449;-73
2023/01/02 06:55:53;;;;;;;11.30;8.93;;;11.40;1.00;;;;;;5032955;28;20425;-73
2023/01/02 06:58:20;;;;;;;12.07;9.43;;;11.30;1.00;;;;;;5033533;28;20734;-74
2023/01/02 07:00:46;;;;;;;12.53;8.43;;;11.30;1.00;;;;;;5033533;28;20381;-73
2023/01/02 07:03:12;;;;;;;14.33;9.70;;;11.40;1.00;;;;;;5033608;28;20422;-75
2023/01/02 07:05:38;;;;;;;11.70;9.43;;;11.40;1.00;;;;;;5032743;28;20503;-72
2023/01/02 07:08:04;;;;;;;19.10;9.73;;;11.40;1.00;;;;;;5033366;28;20564;-75
2023/01/02 07:10:29;;;;;;;10.93;8.57;;;11.40;1.00;;;;;;5032749;28;20207;-72
2023/01/02 07:12:55;;;;;;;14.43;8.77;;;11.40;1.00;;;;;;5032893;28;20172;-71
2023/01/02 07:15:21;;;;;;;15.67;9.90;;;11.40;1.00;;;;;;5031702;28;20641;-74
2023/01/02 07:17:46;;;;;;;13.17;7.87;;;11.40;1.00;;;;;;5033304;28;20254;-75
2023/01/02 07:20:12;;;;;;;11.17;9.10;;;11.50;1.00;;;;;;5031879;28;20180;-72
2023/01/02 07:22:38;;;;;;;15.63;9.50;;;11.40;1.00;;;;;;5032029;28;20182;-74
2023/01/02 07:25:04;;;;;;;19.97;10.33;;;11.50;1.00;;;;;;5032536;28;20215;-74
2023/01/02 07:27:30;;;;;;;15.00;11.73;;;11.50;1.00;;;;;;5032967;28;20176;-74
2023/01/02 07:29:56;;;;;;;16.03;9.57;;;11.50;1.00;;;;;;5033231;28;20885;-75
2023/01/02 07:32:22;;;;;;;16.93;9.07;;;11.40;1.00;;;;;;5032496;28;20472;-74
2023/01/02 07:34:48;;;;;;;12.27;8.90;;;11.50;1.00;;;;;;5032387;28;20192;-75
2023/01/02 07:37:14;;;;;;;16.70;9.60;;;11.50;1.00;;;;;;5031899;28;20439;-75
2023/01/02 07:39:40;;;;;;;10.37;8.20;;;11.50;1.00;;;;;;5033037;28;20393;-70
2023/01/02 07:42:06;;;;;;;12.03;8.87;;;11.50;1.00;;;;;;5032889;28;20179;-74
2023/01/02 07:44:32;;;;;;;13.60;8.80;;;11.60;1.00;;;;;;5032208;28;20491;-74
2023/01/02 07:46:57;;;;;;;13.00;7.90;;;11.60;1.00;;;;;;5033006;28;20171;-74
2023/01/02 07:49:23;;;;;;;13.60;9.10;;;11.60;1.00;;;;;;5031586;28;20540;-74
2023/01/02 07:51:49;;;;;;;9.70;8.70;;;11.60;1.00;;;;;;5032651;28;20211;-74
2023/01/02 07:54:14;;;;;;;10.60;8.03;;;11.70;1.00;;;;;;5032616;28;20191;-71
2023/01/02 07:56:40;;;;;;;12.40;8.70;;;11.70;1.00;;;;;;5032415;28;20621;-76
2023/01/02 07:59:06;;;;;;;9.53;8.17;;;11.70;1.00;;;;;;5032873;28;20179;-71
2023/01/02 08:01:31;;;;;;;15.63;8.37;;;11.70;1.00;;;;;;5032881;28;20248;-74
2023/01/02 08:03:57;;;;;;;13.20;8.33;;;11.70;1.00;;;;;;5032912;28;20389;-70
2023/01/02 08:06:23;;;;;;;11.50;8.70;;;11.70;1.00;;;;;;5032148;28;20178;-74
2023/01/02 08:08:49;;;;;;;11.47;8.63;;;11.70;1.00;;;;;;5032296;28;20540;-74
2023/01/02 08:11:17;;;;;;;9.50;8.43;;;11.80;1.00;;;;;;5032585;28;20187;-74
2023/01/02 08:13:43;;;;;;;10.43;8.03;;;11.80;1.00;;;;;;5032501;28;20172;-70
2023/01/02 08:16:11;;;;;;;15.50;8.97;;;11.80;1.00;;;;;;5036855;28;20508;-70
2023/01/02 08:18:37;;;;;;;9.07;8.20;;;11.80;1.00;;;;;;5052512;28;20411;-75
2023/01/02 08:21:03;;;;;;;8.80;7.90;;;11.80;1.00;;;;;;5048539;28;20911;-76
2023/01/02 08:23:30;;;;;;;11.03;8.40;;;11.80;1.00;;;;;;5034540;28;20402;-75
2023/01/02 08:26:04;;;;;;;13.37;8.13;;;11.80;1.00;;;;;;5036674;28;20415;-75
2023/01/02 08:28:31;;;;;;;8.70;7.83;;;11.90;1.00;;;;;;5035812;28;20435;-72
2023/01/02 08:30:57;;;;;;;13.60;7.90;;;11.90;1.00;;;;;;5038653;28;20465;-70
2023/01/02 08:33:22;;;;;;;10.67;7.47;;;11.90;1.00;;;;;;5056044;28;20527;-74
2023/01/02 08:35:48;;;;;;;8.90;8.00;;;11.80;1.00;;;;;;5043755;28;20446;-71
2023/01/02 08:38:14;;;;;;;14.80;7.40;;;11.90;1.00;;;;;;5037479;28;20257;-71
2023/01/02 08:40:40;;;;;;;8.80;7.43;;;11.90;1.00;;;;;;5036126;28;20186;-75
2023/01/02 08:43:06;;;;;;;8.87;6.40;;;11.80;1.00;;;;;;5036278;28;20399;-77
2023/01/02 08:45:32;;;;;;;10.93;7.03;;;11.90;1.00;;;;;;5034685;28;20284;-71
2023/01/02 08:47:58;;;;;;;7.30;6.60;;;11.90;1.00;;;;;;5053047;28;20499;-71
2023/01/02 08:50:24;;;;;;;12.30;8.10;;;11.80;1.00;;;;;;5055894;28;21091;-76
2023/01/02 08:52:50;;;;;;;8.70;6.73;;;11.80;1.00;;;;;;5039915;28;20171;-72
2023/01/02 08:55:16;;;;;;;6.47;5.80;;;11.90;1.00;;;;;;5044704;28;20419;-71
2023/01/02 08:57:41;;;;;;;8.13;7.40;;;12.00;1.00;;;;;;5054182;28;20225;-70
2023/01/02 09:00:08;;;;;;;10.70;6.63;;;12.00;1.00;;;;;;5046067;28;20791;-71
2023/01/02 09:02:34;;;;;;;10.13;7.60;;;12.00;1.00;;;;;;5035842;28;20171;-76
2023/01/02 09:05:00;;;;;;;11.23;7.47;;;12.00;1.00;;;;;;5041605;28;20427;-70
2023/01/02 09:07:25;;;;;;;8.30;7.50;;;12.10;1.00;;;;;;5055669;28;20384;-74
2023/01/02 09:09:51;;;;;;;13.30;8.97;;;12.20;1.00;;;;;;5051039;28;20186;-76
2023/01/02 09:12:17;;;;;;;15.33;7.77;;;12.10;1.00;;;;;;5055626;28;20174;-71
2023/01/02 09:14:43;;;;;;;9.50;8.20;;;12.20;1.00;;;;;;5053808;28;20199;-76
2023/01/02 09:17:08;;;;;;;7.70;6.90;;;12.20;1.00;;;;;;5055390;28;20206;-75
2023/01/02 09:19:34;;;;;;;8.50;6.90;;;12.20;1.00;;;;;;5051036;28;20647;-75
2023/01/02 09:22:00;;;;;;;6.43;5.83;;;12.30;1.00;;;;;;5045120;28;20171;-70
2023/01/02 09:24:27;;;;;;;7.77;7.07;;;12.30;1.00;;;;;;5054156;28;20436;-77
2023/01/02 09:26:53;;;;;;;12.20;8.10;;;12.30;1.00;;;;;;5050508;28;20420;-73
2023/01/02 09:29:19;;;;;;;9.97;7.93;;;12.20;1.00;;;;;;5035224;28;20406;-71
2023/01/02 09:31:45;;;;;;;7.20;6.50;;;12.30;1.00;;;;;;5035485;28;21006;-71
2023/01/02 09:34:11;;;;;;;11.70;7.63;;;12.30;1.00;;;;;;5034847;28;20279;-73
2023/01/02 09:36:37;;;;;;;0.80;0.70;;;12.30;1.00;;;;;;5039539;28;20432;-78
2023/01/02 09:39:03;;;;;;;0.80;0.70;;;12.20;1.00;;;;;;5054634;28;20377;-70
2023/01/02 09:41:58;;;;;;;0.90;0.70;;;12.30;1.00;;;;;;5051127;28;20397;-69
2023/01/02 09:44:42;;;;;;;1.00;0.90;;;12.30;1.00;;;;;;5034077;28;20416;-81
2023/01/02 09:47:10;;;;;;;0.80;0.70;;;12.30;1.00;;;;;;5042770;28;20432;-70
2023/01/02 09:49:44;;;;;;;0.80;0.70;;;12.30;1.00;;;;;;5054757;28;20869;-70
2023/01/02 09:52:18;;;;;;;0.80;0.70;;;12.30;1.00;;;;;;5046928;28;20484;-69
2023/01/02 09:54:43;;;;;;;0.80;0.70;;;12.30;1.00;;;;;;5036510;28;20489;-70
2023/01/02 09:57:51;;;;;;;0.90;0.70;;;12.30;1.00;;;;;;5054706;28;20360;-83
2023/01/02 10:00:20;;;;;;;1.03;0.93;;;12.30;1.00;;;;;;5051096;28;20175;-72
2023/01/02 10:02:58;;;;;;;0.80;0.70;;;12.20;1.00;;;;;;5037315;28;20397;-71
2023/01/02 10:05:57;;;;;;;0.80;0.70;;;12.20;1.00;;;;;;5040593;28;20733;-70
2023/01/02 10:08:33;;;;;;;0.90;0.80;;;12.10;1.00;;;;;;5054515;28;20368;-71
2023/01/02 10:11:18;;;;;;;0.80;0.70;;;12.10;1.00;;;;;;5042713;28;20428;-70
2023/01/02 10:13:58;;;;;;;0.80;0.70;;;12.00;1.00;;;;;;5034403;28;20756;-69
2023/01/02 10:16:30;;;;;;;0.90;0.80;;;12.00;1.00;;;;;;5033339;28;20383;-79
2023/01/02 10:19:00;;;;;;;0.80;0.70;;;11.80;1.00;;;;;;5034111;28;20481;-77
2023/01/02 10:21:30;;;;;;;0.80;0.70;;;11.80;1.00;;;;;;5034475;28;20911;-78
2023/01/02 10:24:20;;;;;;;0.80;0.70;;;11.70;1.00;;;;;;5034272;28;20380;-69
2023/01/02 10:26:51;;;;;;;0.80;0.80;;;11.60;1.00;;;;;;5034313;28;20953;-69
2023/01/02 10:29:29;;;;;;;0.80;0.70;;;11.60;1.00;;;;;;5035869;28;20891;-69
2023/01/02 10:32:01;;;;;;;0.90;0.80;;;11.50;1.00;;;;;;5053919;28;20420;-80
2023/01/02 10:34:47;;;;;;;0.83;0.77;;;11.50;1.00;;;;;;5048874;28;20428;-68
2023/01/02 10:37:15;;;;;;;0.80;0.80;;;11.50;1.00;;;;;;5053622;28;20383;-78
2023/01/02 10:39:43;;;;;;;0.80;0.70;;;11.50;1.00;;;;;;5053021;28;20884;-78
2023/01/02 10:42:12;;;;;;;0.80;0.70;;;11.50;1.00;;;;;;5053950;28;20762;-78
2023/01/02 10:44:39;;;;;;;0.90;0.70;;;11.50;1.00;;;;;;5045747;28;20559;-77
2023/01/02 10:47:32;;;;;;;0.80;0.70;;;11.50;1.00;;;;;;5033321;28;20378;-69
2023/01/02 10:49:58;;;;;;;0.90;0.80;;;11.60;1.00;;;;;;5042239;28;20927;-68
2023/01/02 10:52:28;;;;;;;0.80;0.80;;;11.60;1.00;;;;;;5041850;28;20397;-69
2023/01/02 10:54:56;;;;;;;0.90;0.80;;;11.50;1.00;;;;;;5040340;28;20412;-73
2023/01/02 10:57:44;;;;;;;0.90;0.80;;;11.60;1.00;;;;;;5052082;28;20376;-77
2023/01/02 11:00:32;;;;;;;0.80;0.80;;;11.60;1.00;;;;;;5053558;28;20402;-78
2023/01/02 11:03:19;;;;;;;0.80;0.80;;;11.60;1.00;;;;;;5047194;28;20460;-75
2023/01/02 11:05:48;;;;;;;0.80;0.70;;;11.60;1.00;;;;;;5032262;28;20937;-77
2023/01/02 11:08:18;;;;;;;0.80;0.80;;;11.60;1.00;;;;;;5039520;28;20449;-69
2023/01/02 11:10:45;;;;;;;0.80;0.70;;;11.60;1.00;;;;;;5052855;28;20518;-68
2023/01/02 11:13:19;;;;;;;0.80;0.80;;;11.50;1.00;;;;;;5046469;28;20464;-67
2023/01/02 11:15:50;;;;;;;0.80;0.73;;;11.50;1.00;;;;;;5032517;28;20495;-78
2023/01/02 11:18:29;;;;;;;0.80;0.70;;;11.60;1.00;;;;;;5039845;28;20420;-76
2023/01/02 11:21:03;;;;;;;0.80;0.70;;;11.60;1.00;;;;;;5048759;28;20425;-68
2023/01/02 11:23:40;;;;;;;0.80;0.80;;;11.60;1.00;;;;;;5037369;28;20420;-77
2023/01/02 11:26:18;;;;;;;0.80;0.70;;;11.50;1.00;;;;;;5040549;28;20404;-77
2023/01/02 11:28:44;;;;;;;0.80;0.80;;;11.40;1.00;;;;;;5052845;28;20785;-77
2023/01/02 11:31:13;;;;;;;0.90;0.80;;;11.40;1.00;;;;;;5044473;28;20486;-78
2023/01/02 11:33:40;;;;;;;0.80;0.80;;;11.40;1.00;;;;;;5033127;28;20427;-68
2023/01/02 11:36:12;;;;;;;0.80;0.70;;;11.20;1.00;;;;;;5035675;28;20396;-69
2023/01/02 11:38:45;;;;;;;1.00;0.90;;;11.00;1.00;;;;;;5033124;28;20398;-68
2023/01/02 11:41:22;;;;;;;0.90;0.80;;;11.00;1.00;;;;;;5033214;28;20443;-68
2023/01/02 11:43:56;;;;;;;0.90;0.80;;;11.00;1.00;;;;;;5031971;28;20454;-69
2023/01/02 11:46:26;;;;;;;0.90;0.70;;;11.00;1.00;;;;;;5044067;28;20435;-68
2023/01/02 11:48:58;;;;;;;0.87;0.80;;;10.90;1.00;;;;;;5043034;28;20422;-73
2023/01/02 11:51:27;;;;;;;1.07;0.97;;;10.80;1.00;;;;;;5033046;28;20452;-79
2023/01/02 11:53:53;;;;;;;1.00;0.90;;;10.70;1.00;;;;;;5033901;28;20397;-68
2023/01/02 11:56:36;;;;;;;1.00;0.90;;;10.60;1.00;;;;;;5031920;28;20731;-68
2023/01/02 11:59:27;;;;;;;0.90;0.80;;;10.50;1.00;;;;;;5047716;28;20391;-79
2023/01/02 12:02:16;;;;;;;0.93;0.83;;;10.50;1.00;;;;;;5056318;28;20395;-78
2023/01/02 12:04:42;;;;;;;0.90;0.80;;;10.40;1.00;;;;;;5038510;28;20456;-68
2023/01/02 12:07:19;;;;;;;0.83;0.80;;;10.20;1.00;;;;;;5036526;28;20735;-79
2023/01/02 12:10:03;;;;;;;1.00;0.90;;;10.10;1.00;;;;;;5053167;28;20177;-68
2023/01/02 12:12:38;;;;;;;1.00;0.90;;;10.10;1.00;;;;;;5056578;28;20373;-68
2023/01/02 12:15:17;;;;;;;1.00;0.90;;;10.00;1.00;;;;;;5036399;28;20406;-79
2023/01/02 12:18:11;;;;;;;0.90;0.80;;;9.90;1.00;;;;;;5036694;28;20357;-68
2023/01/02 12:21:01;;;;;;;1.00;0.90;;;9.90;1.00;;;;;;5035164;28;20755;-80
2023/01/02 12:23:39;;;;;;;1.00;0.90;;;9.80;1.00;;;;;;5040827;28;20398;-80
2023/01/02 12:26:12;;;;;;;0.90;0.80;;;9.70;1.00;;;;;;5055201;28;20400;-72
2023/01/02 12:28:47;;;;;;;1.00;0.90;;;9.70;1.00;;;;;;5050671;28;20762;-69
2023/01/02 12:31:36;;;;;;;1.00;0.90;;;9.60;1.00;;;;;;5036346;28;20416;-79
2023/01/02 12:34:14;;;;;;;1.07;0.97;;;9.50;1.00;;;;;;5044177;28;20434;-69
2023/01/02 12:36:57;;;;;;;1.00;0.90;;;9.60;1.00;;;;;;5055616;28;20972;-69
2023/01/02 12:39:26;;;;;;;1.10;1.00;;;9.50;1.00;;;;;;5045456;28;20915;-68
2023/01/02 12:42:21;;;;;;;1.00;0.90;;;9.50;1.00;;;;;;5036236;28;20425;-68
2023/01/02 12:44:51;;;;;;;1.10;1.00;;;9.30;1.00;;;;;;5047856;28;20999;-69
2023/01/02 12:47:30;;;;;;;1.00;0.90;;;9.30;1.00;;;;;;5055522;28;20738;-69
2023/01/02 12:50:02;;;;;;;1.03;0.93;;;9.30;1.00;;;;;;5041714;28;20995;-68
2023/01/02 12:52:41;;;;;;;1.00;0.90;;;9.40;1.00;;;;;;5035989;28;20397;-69
2023/01/02 12:55:25;;;;;;;0.90;0.80;;;9.40;1.00;;;;;;5048307;28;20433;-80
2023/01/02 12:58:01;;;;;;;1.00;0.90;;;9.40;1.00;;;;;;5055845;28;20374;-69
2023/01/02 13:00:35;;;;;;;1.00;0.90;;;9.40;1.00;;;;;;5038532;28;20756;-81
2023/01/02 13:03:19;;;;;;;1.00;0.90;;;9.40;1.00;;;;;;5035105;28;20390;-82
2023/01/02 13:05:53;;;;;;;0.90;0.80;;;9.30;1.00;;;;;;5053597;28;20833;-82
2023/01/02 13:08:34;;;;;;;1.10;1.00;;;9.30;1.00;;;;;;5052749;28;20904;-80
2023/01/02 13:11:03;;;;;;;1.00;0.90;;;9.20;1.00;;;;;;5035569;28;20454;-69
2023/01/02 13:13:33;;;;;;;1.00;0.90;;;9.20;1.00;;;;;;5037051;28;20425;-69
2023/01/02 13:16:05;;;;;;;1.00;0.90;;;9.20;1.00;;;;;;5053346;28;20937;-69